If you wish to contribute or participate in the discussions about articles you are invited to join SKYbrary as a registered user

 Actions

Shonai Airport

From SKYbrary Wiki

RJSY
Airport
ICAO: RJSY – IATA: SYO
Summary
Name Shonai Airport
Region Asia and Pacific
Territory Japan JP.gif
Location Shonai, Yamagata Prefecture
Serving Sakata and Tsuruoka
Elevation 21.946 m
72 ft21.946 m
Coordinates 38° 48' 56.82" N, 139° 47' 15.90" E
Runways
Designator Length Width Surface ROPS
9/27 1999 m6,558.399 ft
46 m150.919 ft
ASP yes/yes


METAR
Observation RJSY 250700Z 33005KT 280V360 9999 FEW007 SCT009 BKN012 12/10 Q1005
Station Shonai
Date/Time 25 April 2019 07:00:00
Wind direction 330°
Wind speed 05 kts
Lowest cloud amount few clouds
Temperature 12°C
Dew point 10°C
Humidity 87%
QNH 1005 hPa
Weather condition n/a

Regional airport in Sakata, Yamagata, Japan.

Climatology

Humid continental climate (Köppen climate classification Dfa)

Maps

Terrain

Loading map...

Airport Layout

Loading map...


Accidents & Serious Incidents at or in vicinity of RJSY

None on SKYbrary